createdAt,value
2017-10-28T00:00:40.767Z,10.64
2017-10-28T00:01:49.765Z,10.4
2017-10-28T00:02:59.313Z,10.4
2017-10-28T00:04:08.161Z,10.32
2017-10-28T00:05:17.015Z,10.45
2017-10-28T00:06:25.854Z,10.4
2017-10-28T00:07:34.702Z,10.48
2017-10-28T00:08:43.549Z,10.45
2017-10-28T00:09:52.395Z,10.26
2017-10-28T00:11:01.240Z,10.34
2017-10-28T00:12:10.094Z,10.32
2017-10-28T00:13:19.146Z,10.29
2017-10-28T00:14:27.982Z,10.33
2017-10-28T00:15:36.830Z,10.26
2017-10-28T00:16:45.677Z,10.42
2017-10-28T00:17:54.524Z,10.42
2017-10-28T00:19:03.621Z,10.38
2017-10-28T00:20:12.467Z,10.36
2017-10-28T00:21:21.316Z,10.33
2017-10-28T00:22:30.165Z,10.51
2017-10-28T00:23:39.018Z,10.47
2017-10-28T00:24:47.861Z,10.53
2017-10-28T00:25:56.707Z,10.51
2017-10-28T00:27:05.551Z,10.36
2017-10-28T00:28:14.397Z,10.3
2017-10-28T00:29:23.244Z,10.4
2017-10-28T00:30:32.594Z,10.53
2017-10-28T00:31:41.436Z,10.55
2017-10-28T00:32:50.296Z,10.64
2017-10-28T00:33:59.127Z,10.53
2017-10-28T00:35:08.320Z,10.73
2017-10-28T00:36:17.365Z,10.66
2017-10-28T00:37:26.218Z,10.42
2017-10-28T00:38:35.408Z,10.47
2017-10-28T00:39:44.257Z,10.42
2017-10-28T00:40:53.103Z,10.36
2017-10-28T00:42:02.100Z,10.38
2017-10-28T00:43:10.947Z,10.56
2017-10-28T00:44:19.793Z,10.55
2017-10-28T00:45:28.638Z,10.51
2017-10-28T00:46:37.486Z,10.4
2017-10-28T00:47:46.483Z,10.45
2017-10-28T00:48:55.327Z,10.61
2017-10-28T00:50:04.173Z,10.47
2017-10-28T00:51:13.018Z,10.52
2017-10-28T00:52:21.866Z,10.51
2017-10-28T00:53:30.810Z,10.45
2017-10-28T00:54:39.659Z,10.51
2017-10-28T00:55:48.507Z,10.41
2017-10-28T00:56:57.351Z,10.4
2017-10-28T00:58:06.199Z,10.47
2017-10-28T00:59:15.489Z,10.27
2017-10-28T01:00:24.333Z,10.22
2017-10-28T01:01:33.184Z,10.51
2017-10-28T01:02:42.031Z,10.26
2017-10-28T01:03:50.873Z,10.32
2017-10-28T01:05:00.219Z,10.26
2017-10-28T01:06:09.066Z,10.23
2017-10-28T01:07:17.911Z,10.41
2017-10-28T01:08:27.107Z,10.33
2017-10-28T01:09:36.300Z,10.32
2017-10-28T01:10:45.146Z,10.61
2017-10-28T01:11:53.992Z,10.51
2017-10-28T01:13:02.834Z,10.32
2017-10-28T01:14:11.689Z,10.17
2017-10-28T01:15:20.876Z,10.51
2017-10-28T01:16:30.223Z,10.52
2017-10-28T01:17:39.070Z,10.52
2017-10-28T01:18:47.916Z,10.52
2017-10-28T01:19:56.760Z,10.4
2017-10-28T01:21:05.606Z,10.32
2017-10-28T01:22:14.552Z,10.34
2017-10-28T01:23:23.395Z,10.25
2017-10-28T01:24:32.239Z,10.2
2017-10-28T01:25:41.083Z,10.38
2017-10-28T01:26:49.933Z,10.45
2017-10-28T01:27:59.767Z,10.4
2017-10-28T01:29:08.610Z,10.42
2017-10-28T01:30:17.458Z,10.41
2017-10-28T01:31:26.302Z,10.55
2017-10-28T01:32:35.152Z,10.55
2017-10-28T01:33:44.148Z,10.63
2017-10-28T01:34:52.996Z,10.42
2017-10-28T01:36:01.847Z,10.45
2017-10-28T01:37:10.748Z,10.52
2017-10-28T01:38:19.592Z,10.56
2017-10-28T01:39:28.588Z,10.36
2017-10-28T01:40:37.777Z,10.22
2017-10-28T01:41:46.624Z,10.2
2017-10-28T01:42:55.472Z,10.27
2017-10-28T01:44:04.316Z,10.4
2017-10-28T01:45:13.262Z,10.29
2017-10-28T01:46:22.108Z,10.41
2017-10-28T01:47:30.957Z,10.25
2017-10-28T01:48:39.806Z,10.52
2017-10-28T01:49:48.654Z,10.3
2017-10-28T01:50:57.802Z,10.23
2017-10-28T01:52:06.650Z,10.47
2017-10-28T01:53:15.498Z,10.32
2017-10-28T01:54:24.365Z,10.25
2017-10-28T01:55:33.194Z,10.18
2017-10-28T01:56:42.035Z,10.4
2017-10-28T01:57:50.882Z,10.59
2017-10-28T01:58:59.730Z,10.38
2017-10-28T02:00:08.923Z,10.34
2017-10-28T02:01:17.768Z,10.4
2017-10-28T02:02:26.715Z,10.3
2017-10-28T02:03:35.564Z,10.29
2017-10-28T02:04:44.410Z,10.44
2017-10-28T02:05:53.257Z,10.6
2017-10-28T02:07:02.102Z,10.38
2017-10-28T02:08:10.950Z,10.44
2017-10-28T02:09:19.800Z,10.51
2017-10-28T02:10:28.647Z,10.4
2017-10-28T02:11:37.494Z,10.32
2017-10-28T02:12:46.342Z,10.4
2017-10-28T02:13:55.341Z,10.36
2017-10-28T02:15:04.189Z,10.36
2017-10-28T02:16:13.035Z,10.52
2017-10-28T02:17:21.883Z,10.41
2017-10-28T02:18:30.728Z,10.41
2017-10-28T02:19:39.675Z,10.51
2017-10-28T02:20:48.523Z,10.78
2017-10-28T02:21:57.367Z,10.55
2017-10-28T02:23:06.216Z,10.44
2017-10-28T02:24:15.062Z,10.56
2017-10-28T02:25:24.223Z,10.48
2017-10-28T02:26:33.051Z,10.52
2017-10-28T02:27:41.901Z,10.36
2017-10-28T02:28:50.750Z,10.45
2017-10-28T02:29:59.598Z,10.45
2017-10-28T02:31:08.645Z,10.48
2017-10-28T02:32:17.488Z,10.4
2017-10-28T02:33:26.337Z,10.38
2017-10-28T02:34:35.180Z,10.38
2017-10-28T02:35:44.027Z,10.52
2017-10-28T02:36:53.216Z,10.48
2017-10-28T02:38:02.063Z,10.44
2017-10-28T02:39:10.917Z,10.52
2017-10-28T02:40:19.757Z,10.47
2017-10-28T02:41:28.611Z,10.74
2017-10-28T02:42:37.514Z,10.56
2017-10-28T02:43:46.351Z,10.73
2017-10-28T02:44:55.199Z,10.51
2017-10-28T02:46:04.040Z,10.7
2017-10-28T02:47:12.885Z,10.51
2017-10-28T02:48:21.984Z,10.51
2017-10-28T02:49:31.174Z,10.6
2017-10-28T02:50:40.018Z,10.51
2017-10-28T02:51:48.865Z,10.51
2017-10-28T02:52:57.711Z,10.52
2017-10-28T02:54:07.109Z,10.85
2017-10-28T02:55:15.957Z,10.61
2017-10-28T02:56:25.148Z,10.78
2017-10-28T02:57:33.997Z,10.61
2017-10-28T02:58:42.845Z,10.64
2017-10-28T02:59:51.845Z,10.66
2017-10-28T03:01:00.691Z,10.79
2017-10-28T03:02:09.892Z,10.6
2017-10-28T03:03:18.737Z,10.55
2017-10-28T03:04:27.579Z,10.59
2017-10-28T03:05:36.725Z,10.55
2017-10-28T03:06:45.935Z,10.56
2017-10-28T03:07:54.776Z,10.86
2017-10-28T03:09:03.625Z,10.79
2017-10-28T03:10:12.475Z,10.74
2017-10-28T03:11:21.442Z,10.63
2017-10-28T03:12:30.268Z,10.66
2017-10-28T03:13:39.116Z,10.76
2017-10-28T03:14:47.963Z,10.7
2017-10-28T03:15:56.810Z,10.66
2017-10-28T03:17:05.955Z,10.52
2017-10-28T03:18:14.801Z,10.61
2017-10-28T03:19:23.647Z,10.74
2017-10-28T03:20:32.494Z,10.48
2017-10-28T03:21:41.339Z,10.56
2017-10-28T03:22:50.289Z,10.68
2017-10-28T03:23:59.135Z,10.59
2017-10-28T03:25:07.987Z,10.66
2017-10-28T03:26:16.828Z,10.63
2017-10-28T03:27:25.682Z,10.52
2017-10-28T03:28:34.638Z,10.53
2017-10-28T03:29:43.473Z,10.48
2017-10-28T03:30:52.327Z,10.71
2017-10-28T03:32:01.163Z,10.68
2017-10-28T03:33:10.010Z,10.55
2017-10-28T03:34:19.608Z,10.47
2017-10-28T03:35:28.452Z,10.51
2017-10-28T03:36:37.297Z,10.59
2017-10-28T03:37:46.144Z,10.89
2017-10-28T03:38:54.996Z,10.74
2017-10-28T03:40:03.947Z,10.76
2017-10-28T03:41:12.791Z,10.91
2017-10-28T03:42:21.635Z,10.73
2017-10-28T03:43:30.486Z,10.53
2017-10-28T03:44:39.333Z,10.81
2017-10-28T03:45:48.478Z,10.64
2017-10-28T03:46:57.323Z,10.7
2017-10-28T03:48:06.170Z,10.82
2017-10-28T03:49:15.017Z,10.61
2017-10-28T03:50:23.863Z,10.52
2017-10-28T03:51:32.711Z,10.48
2017-10-28T03:52:41.559Z,10.64
2017-10-28T03:53:50.407Z,10.52
2017-10-28T03:54:59.256Z,10.55
2017-10-28T03:56:08.104Z,10.51
2017-10-28T03:57:16.957Z,10.81
2017-10-28T03:58:25.808Z,10.86
2017-10-28T03:59:34.650Z,10.85
2017-10-28T04:00:43.493Z,10.78
2017-10-28T04:01:52.350Z,10.81
2017-10-28T04:03:01.640Z,10.86
2017-10-28T04:04:10.488Z,10.79
2017-10-28T04:05:19.335Z,11
2017-10-28T04:06:28.179Z,10.89
2017-10-28T04:07:37.023Z,10.89
2017-10-28T04:08:45.975Z,10.71
2017-10-28T04:09:54.822Z,10.6
2017-10-28T04:11:03.672Z,10.63
2017-10-28T04:12:12.519Z,10.79
2017-10-28T04:13:21.369Z,10.61
2017-10-28T04:14:30.516Z,10.68
2017-10-28T04:15:39.363Z,10.63
2017-10-28T04:16:48.215Z,10.59
2017-10-28T04:17:57.411Z,10.85
2017-10-28T04:19:06.256Z,10.76
2017-10-28T04:20:15.256Z,10.81
2017-10-28T04:21:24.119Z,10.59
2017-10-28T04:22:32.949Z,10.81
2017-10-28T04:23:41.796Z,10.63
2017-10-28T04:24:50.644Z,10.6
2017-10-28T04:25:59.592Z,10.55
2017-10-28T04:27:08.441Z,10.66
2017-10-28T04:28:17.282Z,10.52
2017-10-28T04:29:26.178Z,10.61
2017-10-28T04:30:35.024Z,10.48
2017-10-28T04:31:44.170Z,10.64
2017-10-28T04:32:53.015Z,10.59
2017-10-28T04:34:01.865Z,10.59
2017-10-28T04:35:10.706Z,10.55
2017-10-28T04:36:19.554Z,10.82
2017-10-28T04:37:28.501Z,10.78
2017-10-28T04:38:37.350Z,10.88
2017-10-28T04:39:46.198Z,10.81
2017-10-28T04:40:55.046Z,10.66
2017-10-28T04:42:03.898Z,10.78
2017-10-28T04:43:12.894Z,10.84
2017-10-28T04:44:21.737Z,10.79
2017-10-28T04:45:30.633Z,10.88
2017-10-28T04:46:39.480Z,10.99
2017-10-28T04:47:48.327Z,10.85
2017-10-28T04:48:57.325Z,10.76
2017-10-28T04:50:06.174Z,10.71
2017-10-28T04:51:15.020Z,10.68
2017-10-28T04:52:23.869Z,10.84
2017-10-28T04:53:33.060Z,10.66
2017-10-28T04:54:42.156Z,10.91
2017-10-28T04:55:51.005Z,10.88
2017-10-28T04:56:59.850Z,10.88
2017-10-28T04:58:09.046Z,10.88
2017-10-28T04:59:17.890Z,10.85
2017-10-28T05:00:27.035Z,10.67
2017-10-28T05:01:35.880Z,10.73
2017-10-28T05:02:44.727Z,10.7
2017-10-28T05:03:53.575Z,10.66
2017-10-28T05:05:02.424Z,10.81
2017-10-28T05:06:11.420Z,10.81
2017-10-28T05:07:20.614Z,10.81
2017-10-28T05:08:29.460Z,10.59
2017-10-28T05:09:38.309Z,10.55
2017-10-28T05:10:47.156Z,10.71
2017-10-28T05:11:56.302Z,10.64
2017-10-28T05:13:05.157Z,10.74
2017-10-28T05:14:14.005Z,10.86
2017-10-28T05:15:22.849Z,10.81
2017-10-28T05:16:31.693Z,10.82
2017-10-28T05:17:40.789Z,10.63
2017-10-28T05:18:49.631Z,10.53
2017-10-28T05:19:58.477Z,10.6
2017-10-28T05:21:07.325Z,10.73
2017-10-28T05:22:16.173Z,10.71
2017-10-28T05:23:25.221Z,10.61
2017-10-28T05:24:34.069Z,10.66
2017-10-28T05:25:43.283Z,10.92
2017-10-28T05:26:52.146Z,10.84
2017-10-28T05:28:01.040Z,10.73
2017-10-28T05:29:10.098Z,10.66
2017-10-28T05:30:18.968Z,10.6
2017-10-28T05:31:27.829Z,10.86
2017-10-28T05:32:36.692Z,10.85
2017-10-28T05:33:45.534Z,10.73
2017-10-28T05:34:54.481Z,10.79
2017-10-28T05:36:03.675Z,10.91
2017-10-28T05:37:12.523Z,10.81
2017-10-28T05:38:21.371Z,10.73
2017-10-28T05:39:30.221Z,10.79
2017-10-28T05:40:39.220Z,10.82
2017-10-28T05:41:48.065Z,10.84
2017-10-28T05:42:56.910Z,10.86
2017-10-28T05:44:05.757Z,10.79
2017-10-28T05:45:14.603Z,10.86
2017-10-28T05:46:24.096Z,10.86
2017-10-28T05:47:33.288Z,10.86
2017-10-28T05:48:42.131Z,10.88
2017-10-28T05:49:50.980Z,10.89
2017-10-28T05:50:59.831Z,10.82
2017-10-28T05:52:09.123Z,10.76
2017-10-28T05:53:18.316Z,10.71
2017-10-28T05:54:27.164Z,11.02
2017-10-28T05:55:36.009Z,10.96
2017-10-28T05:56:44.855Z,10.88
2017-10-28T05:57:54.106Z,10.89
2017-10-28T05:59:02.956Z,10.81
2017-10-28T06:00:11.807Z,10.7
2017-10-28T06:01:20.645Z,10.76
2017-10-28T06:02:29.491Z,10.86
2017-10-28T06:03:38.435Z,10.91
2017-10-28T06:04:47.284Z,10.85
2017-10-28T06:05:56.134Z,10.79
2017-10-28T06:07:04.979Z,10.78
2017-10-28T06:08:13.825Z,10.78
2017-10-28T06:09:22.679Z,10.85
2017-10-28T06:10:31.528Z,10.84
2017-10-28T06:11:40.379Z,10.86
2017-10-28T06:12:49.577Z,10.74
2017-10-28T06:13:58.868Z,10.86
2017-10-28T06:15:07.716Z,10.92
2017-10-28T06:16:16.565Z,10.84
2017-10-28T06:17:25.752Z,10.84
2017-10-28T06:18:34.602Z,10.89
2017-10-28T06:19:43.793Z,10.96
2017-10-28T06:20:52.642Z,10.84
2017-10-28T06:22:01.497Z,10.86
2017-10-28T06:23:10.344Z,10.91
2017-10-28T06:24:19.341Z,10.94
2017-10-28T06:25:28.188Z,10.76
2017-10-28T06:26:37.047Z,10.92
2017-10-28T06:27:45.895Z,10.92
2017-10-28T06:28:54.744Z,11.04
2017-10-28T06:30:03.586Z,10.88
2017-10-28T06:31:12.434Z,11.09
2017-10-28T06:32:21.282Z,10.82
2017-10-28T06:33:30.131Z,10.79
2017-10-28T06:34:39.126Z,10.88
2017-10-28T06:35:47.990Z,10.84
2017-10-28T06:36:56.831Z,10.86
2017-10-28T06:38:05.702Z,10.86
2017-10-28T06:39:14.523Z,10.81
2017-10-28T06:40:23.670Z,10.99
2017-10-28T06:41:32.519Z,10.89
2017-10-28T06:42:41.365Z,10.73
2017-10-28T06:43:50.213Z,10.96
2017-10-28T06:44:59.059Z,10.84
2017-10-28T06:46:08.206Z,10.86
2017-10-28T06:47:17.400Z,10.81
2017-10-28T06:48:26.298Z,10.81
2017-10-28T06:49:35.145Z,10.81
2017-10-28T06:50:43.996Z,10.97
2017-10-28T06:51:52.944Z,11
2017-10-28T06:53:02.136Z,10.97
2017-10-28T06:54:10.984Z,11.02
2017-10-28T06:55:19.833Z,10.94
2017-10-28T06:56:28.679Z,10.91
2017-10-28T06:57:37.677Z,10.94
2017-10-28T06:58:46.526Z,11.04
2017-10-28T06:59:55.375Z,10.85
2017-10-28T07:01:04.222Z,11.03
2017-10-28T07:02:13.072Z,10.94
2017-10-28T07:03:22.120Z,11.07
2017-10-28T07:04:30.966Z,11.03
2017-10-28T07:05:39.816Z,11.07
2017-10-28T07:06:48.671Z,10.99
2017-10-28T07:07:57.527Z,10.84
2017-10-28T07:09:06.482Z,11.04
2017-10-28T07:10:15.336Z,10.94
2017-10-28T07:11:24.529Z,10.92
2017-10-28T07:12:33.381Z,10.74
2017-10-28T07:13:42.231Z,10.88
2017-10-28T07:14:51.380Z,10.79
2017-10-28T07:16:00.587Z,10.84
2017-10-28T07:17:09.429Z,11.14
2017-10-28T07:18:18.277Z,10.88
2017-10-28T07:19:27.472Z,11.06
2017-10-28T07:20:36.419Z,10.94
2017-10-28T07:21:45.276Z,10.91
2017-10-28T07:22:54.468Z,10.88
2017-10-28T07:24:03.319Z,11
2017-10-28T07:25:12.512Z,10.94
2017-10-28T07:26:21.410Z,10.99
2017-10-28T07:27:30.258Z,11.02
2017-10-28T07:28:39.103Z,11.03
2017-10-28T07:29:47.957Z,11.04
2017-10-28T07:30:56.800Z,10.92
2017-10-28T07:32:05.944Z,10.97
2017-10-28T07:33:14.794Z,11.02
2017-10-28T07:34:23.985Z,11.03
2017-10-28T07:35:33.134Z,10.96
2017-10-28T07:36:41.981Z,10.96
2017-10-28T07:37:51.083Z,11.24
2017-10-28T07:38:59.930Z,11.09
2017-10-28T07:40:08.780Z,11.06
2017-10-28T07:41:17.631Z,10.91
2017-10-28T07:42:26.479Z,11
2017-10-28T07:43:35.424Z,11.11
2017-10-28T07:44:44.272Z,10.97
2017-10-28T07:45:53.120Z,11.06
2017-10-28T07:47:01.970Z,11.11
2017-10-28T07:48:10.822Z,11.1
2017-10-28T07:49:19.725Z,11.1
2017-10-28T07:50:28.577Z,11.04
2017-10-28T07:51:37.422Z,11.04
2017-10-28T07:52:46.276Z,11.04
2017-10-28T07:53:55.140Z,11.09
2017-10-28T07:55:04.292Z,11.03
2017-10-28T07:56:13.140Z,11.03
2017-10-28T07:57:21.989Z,10.96
2017-10-28T07:58:30.838Z,11.09
2017-10-28T07:59:39.684Z,11
2017-10-28T08:00:48.587Z,11.06
2017-10-28T08:01:57.433Z,11.03
2017-10-28T08:03:06.283Z,11.09
2017-10-28T08:04:15.133Z,11.25
2017-10-28T08:05:23.978Z,11.22
2017-10-28T08:06:32.925Z,11.11
2017-10-28T08:07:41.774Z,11.14
2017-10-28T08:08:50.620Z,11.04
2017-10-28T08:09:59.818Z,11.03
2017-10-28T08:11:08.667Z,11.09
2017-10-28T08:12:17.618Z,11.21
2017-10-28T08:13:26.464Z,11.21
2017-10-28T08:14:35.314Z,11.14
2017-10-28T08:15:44.162Z,11.1
2017-10-28T08:16:53.016Z,11.15
2017-10-28T08:18:01.865Z,11.11
2017-10-28T08:19:10.713Z,11.21
2017-10-28T08:20:19.565Z,11.03
2017-10-28T08:21:28.415Z,11.28
2017-10-28T08:22:37.608Z,11.29
2017-10-28T08:23:46.458Z,11.18
2017-10-28T08:24:55.303Z,11.22
2017-10-28T08:26:04.152Z,11.25
2017-10-28T08:27:13.005Z,11.17
2017-10-28T08:28:21.853Z,11.21
2017-10-28T08:29:30.750Z,11.29
2017-10-28T08:30:39.658Z,11.44
2017-10-28T08:31:48.498Z,11.42
2017-10-28T08:32:57.347Z,11.21
2017-10-28T08:34:06.194Z,11.49
2017-10-28T08:35:15.345Z,11.37
2017-10-28T08:36:24.197Z,11.57
2017-10-28T08:37:33.049Z,11.49
2017-10-28T08:38:41.900Z,11.46
2017-10-28T08:39:50.753Z,11.42
2017-10-28T08:40:59.597Z,11.29
2017-10-28T08:42:08.449Z,11.32
2017-10-28T08:43:17.300Z,11.24
2017-10-28T08:44:26.150Z,11.36
2017-10-28T08:45:35.001Z,11.35
2017-10-28T08:46:44.048Z,11.58
2017-10-28T08:47:52.903Z,11.46
2017-10-28T08:49:01.753Z,11.65
2017-10-28T08:50:10.604Z,11.47
2017-10-28T08:51:19.456Z,11.49
2017-10-28T08:52:28.461Z,11.62
2017-10-28T08:53:37.311Z,11.46
2017-10-28T08:54:46.160Z,11.52
2017-10-28T08:55:55.010Z,11.54
2017-10-28T08:57:03.869Z,11.67
2017-10-28T08:58:12.735Z,11.78
2017-10-28T08:59:21.927Z,11.64
2017-10-28T09:00:30.776Z,11.51
2017-10-28T09:01:39.626Z,11.55
2017-10-28T09:02:48.478Z,11.64
2017-10-28T09:03:57.430Z,11.57
2017-10-28T09:05:06.347Z,11.55
2017-10-28T09:06:15.210Z,11.57
2017-10-28T09:07:24.490Z,11.58
2017-10-28T09:08:33.340Z,11.57
2017-10-28T09:09:42.290Z,11.75
2017-10-28T09:10:51.138Z,11.64
2017-10-28T09:11:59.990Z,11.67
2017-10-28T09:13:09.250Z,11.58
2017-10-28T09:14:18.444Z,11.55
2017-10-28T09:15:27.393Z,11.67
2017-10-28T09:16:36.242Z,11.64
2017-10-28T09:17:45.092Z,11.72
2017-10-28T09:18:53.939Z,11.67
2017-10-28T09:20:02.791Z,11.75
2017-10-28T09:21:12.041Z,11.73
2017-10-28T09:22:20.889Z,11.73
2017-10-28T09:23:29.739Z,11.58
2017-10-28T09:24:38.589Z,11.65
2017-10-28T09:25:47.439Z,11.65
2017-10-28T09:26:56.492Z,11.69
2017-10-28T09:28:05.351Z,11.7
2017-10-28T09:29:14.194Z,11.69
2017-10-28T09:30:23.040Z,11.64
2017-10-28T09:31:31.892Z,11.73
2017-10-28T09:32:40.842Z,11.8
2017-10-28T09:33:49.695Z,11.75
2017-10-28T09:34:58.601Z,11.73
2017-10-28T09:36:07.453Z,11.62
2017-10-28T09:37:16.314Z,11.62
2017-10-28T09:38:25.212Z,11.67
2017-10-28T09:39:34.058Z,11.76
2017-10-28T09:40:42.910Z,11.72
2017-10-28T09:41:51.755Z,11.67
2017-10-28T09:43:00.603Z,11.78
2017-10-28T09:44:09.844Z,11.91
2017-10-28T09:45:18.698Z,11.78
2017-10-28T09:46:27.890Z,11.76
2017-10-28T09:47:37.436Z,11.82
2017-10-28T09:48:46.284Z,11.75
2017-10-28T09:49:55.294Z,11.76
2017-10-28T09:51:04.146Z,11.79
2017-10-28T09:52:12.995Z,11.91
2017-10-28T09:53:21.844Z,11.72
2017-10-28T09:54:30.743Z,11.73
2017-10-28T09:55:39.743Z,11.8
2017-10-28T09:56:48.591Z,11.82
2017-10-28T09:57:57.440Z,12.02
2017-10-28T09:59:06.290Z,11.83
2017-10-28T10:00:15.148Z,11.83
2017-10-28T10:01:24.094Z,11.9
2017-10-28T10:02:32.941Z,11.95
2017-10-28T10:03:41.798Z,12.04
2017-10-28T10:04:50.668Z,11.83
2017-10-28T10:05:59.558Z,11.8
2017-10-28T10:07:08.459Z,11.76
2017-10-28T10:08:17.368Z,11.94
2017-10-28T10:09:26.215Z,11.96
2017-10-28T10:10:35.134Z,11.9
2017-10-28T10:11:44.329Z,11.91
2017-10-28T10:12:53.177Z,11.9
2017-10-28T10:14:02.024Z,11.85
2017-10-28T10:15:10.878Z,11.91
2017-10-28T10:16:19.729Z,11.91
2017-10-28T10:17:28.576Z,11.94
2017-10-28T10:18:37.672Z,11.95
2017-10-28T10:19:46.523Z,11.96
2017-10-28T10:20:55.372Z,12.01
2017-10-28T10:22:04.222Z,11.99
2017-10-28T10:23:13.071Z,12.1
2017-10-28T10:24:21.920Z,12.09
2017-10-28T10:25:30.777Z,12.1
2017-10-28T10:26:39.970Z,12.12
2017-10-28T10:27:48.818Z,12.04
2017-10-28T10:28:57.674Z,12.17
2017-10-28T10:30:06.518Z,12.32
2017-10-28T10:31:15.368Z,12.14
2017-10-28T10:32:24.219Z,12.09
2017-10-28T10:33:33.067Z,12.23
2017-10-28T10:34:41.915Z,12.23
2017-10-28T10:35:50.916Z,12.13
2017-10-28T10:36:59.763Z,12.32
2017-10-28T10:38:08.614Z,12.17
2017-10-28T10:39:17.462Z,12.27
2017-10-28T10:40:26.310Z,12.35
2017-10-28T10:41:35.312Z,12.39
2017-10-28T10:42:44.156Z,12.24
2017-10-28T10:43:53.008Z,12.2
2017-10-28T10:45:01.859Z,12.04
2017-10-28T10:46:10.713Z,12.12
2017-10-28T10:47:19.711Z,12.27
2017-10-28T10:48:28.561Z,12.09
2017-10-28T10:49:37.471Z,12.29
2017-10-28T10:50:46.320Z,12.32
2017-10-28T10:51:55.167Z,12.14
2017-10-28T10:53:04.269Z,12.27
2017-10-28T10:54:13.115Z,12.17
2017-10-28T10:55:21.964Z,12.16
2017-10-28T10:56:30.869Z,12.2
2017-10-28T10:57:39.719Z,12.17
2017-10-28T10:58:48.619Z,12.14
2017-10-28T10:59:57.468Z,12.17
2017-10-28T11:01:06.320Z,12.17
2017-10-28T11:02:15.173Z,12.19
2017-10-28T11:03:24.366Z,12.2
2017-10-28T11:04:33.367Z,12.31
2017-10-28T11:05:42.214Z,12.27
2017-10-28T11:06:51.124Z,12.24
2017-10-28T11:07:59.973Z,12.2
2017-10-28T11:09:08.844Z,12.32
2017-10-28T11:10:17.825Z,12.27
2017-10-28T11:11:26.674Z,12.16
2017-10-28T11:12:35.523Z,12.28
2017-10-28T11:13:44.372Z,12.23
2017-10-28T11:14:53.280Z,12.39
2017-10-28T11:16:02.231Z,12.29
2017-10-28T11:17:11.082Z,12.2
2017-10-28T11:18:19.994Z,12.42
2017-10-28T11:19:28.905Z,12.37
2017-10-28T11:20:37.756Z,12.21
2017-10-28T11:21:46.723Z,12.32
2017-10-28T11:22:55.575Z,12.31
2017-10-28T11:24:04.425Z,12.38
2017-10-28T11:25:13.274Z,12.42
2017-10-28T11:26:22.189Z,12.39
2017-10-28T11:27:31.138Z,12.38
2017-10-28T11:28:39.988Z,12.49
2017-10-28T11:29:49.181Z,12.38
2017-10-28T11:30:58.094Z,12.46
2017-10-28T11:32:07.005Z,12.5
2017-10-28T11:33:16.059Z,12.39
2017-10-28T11:34:24.908Z,12.47
2017-10-28T11:35:33.757Z,12.49
2017-10-28T11:36:42.665Z,12.47
2017-10-28T11:37:51.571Z,12.49
2017-10-28T11:39:00.421Z,12.57
2017-10-28T11:40:09.269Z,12.54
2017-10-28T11:41:18.116Z,12.5
2017-10-28T11:42:27.021Z,12.53
2017-10-28T11:43:35.869Z,12.64
2017-10-28T11:44:44.867Z,12.56
2017-10-28T11:45:53.792Z,12.53
2017-10-28T11:47:02.649Z,12.54
2017-10-28T11:48:11.561Z,12.52
2017-10-28T11:49:20.471Z,12.57
2017-10-28T11:50:29.648Z,12.59
2017-10-28T11:51:38.499Z,12.65
2017-10-28T11:52:47.357Z,12.53
2017-10-28T11:53:56.212Z,12.57
2017-10-28T11:55:05.061Z,12.72
2017-10-28T11:56:14.115Z,12.65
2017-10-28T11:57:22.964Z,12.52
2017-10-28T11:58:31.814Z,12.56
2017-10-28T11:59:41.010Z,12.49
2017-10-28T12:00:49.862Z,12.54
2017-10-28T12:01:58.713Z,12.62
2017-10-28T12:03:07.563Z,12.52
2017-10-28T12:04:16.411Z,12.83
2017-10-28T12:05:25.328Z,12.77
2017-10-28T12:06:34.178Z,12.68
2017-10-28T12:07:43.131Z,12.7
2017-10-28T12:08:51.983Z,12.7
2017-10-28T12:10:00.896Z,12.65
2017-10-28T12:11:09.744Z,12.74
2017-10-28T12:12:18.593Z,12.95
2017-10-28T12:13:27.644Z,12.78
2017-10-28T12:14:36.490Z,12.7
2017-10-28T12:15:45.341Z,12.7
2017-10-28T12:16:54.191Z,12.67
2017-10-28T12:18:03.041Z,12.7
2017-10-28T12:19:12.043Z,12.68
2017-10-28T12:20:20.898Z,12.5
2017-10-28T12:21:29.801Z,12.7
2017-10-28T12:22:38.653Z,12.75
2017-10-28T12:23:47.505Z,12.64
2017-10-28T12:24:56.365Z,12.78
2017-10-28T12:26:05.213Z,12.93
2017-10-28T12:27:14.064Z,12.77
2017-10-28T12:28:22.913Z,12.68
2017-10-28T12:29:31.764Z,12.57
2017-10-28T12:30:40.720Z,12.65
2017-10-28T12:31:49.920Z,12.77
2017-10-28T12:32:58.770Z,12.75
2017-10-28T12:34:07.619Z,12.74
2017-10-28T12:35:16.474Z,12.78
2017-10-28T12:36:25.476Z,12.93
2017-10-28T12:37:34.330Z,12.85
2017-10-28T12:38:43.179Z,12.72
2017-10-28T12:39:52.029Z,12.67
2017-10-28T12:41:00.880Z,12.83
2017-10-28T12:42:09.878Z,12.65
2017-10-28T12:43:18.727Z,12.68
2017-10-28T12:44:27.575Z,12.54
2017-10-28T12:45:36.427Z,12.67
2017-10-28T12:46:45.288Z,12.7
2017-10-28T12:47:54.285Z,12.87
2017-10-28T12:49:03.133Z,12.86
2017-10-28T12:50:11.988Z,12.78
2017-10-28T12:51:20.859Z,12.74
2017-10-28T12:52:29.707Z,12.74
2017-10-28T12:53:38.717Z,12.79
2017-10-28T12:54:47.564Z,12.68
2017-10-28T12:55:56.415Z,12.87
2017-10-28T12:57:05.610Z,12.82
2017-10-28T12:58:14.457Z,12.9
2017-10-28T12:59:23.458Z,12.68
2017-10-28T13:00:32.314Z,12.74
2017-10-28T13:01:41.507Z,12.68
2017-10-28T13:02:50.363Z,12.65
2017-10-28T13:03:59.561Z,12.92
2017-10-28T13:05:08.662Z,12.82
2017-10-28T13:06:17.526Z,12.83
2017-10-28T13:07:26.721Z,12.82
2017-10-28T13:08:35.586Z,12.82
2017-10-28T13:09:44.423Z,12.75
2017-10-28T13:10:53.572Z,12.9
2017-10-28T13:12:02.422Z,12.75
2017-10-28T13:13:11.270Z,12.82
2017-10-28T13:14:20.119Z,12.83
2017-10-28T13:15:28.967Z,12.82
2017-10-28T13:16:37.867Z,12.79
2017-10-28T13:17:46.716Z,12.85
2017-10-28T13:18:55.566Z,12.87
2017-10-28T13:20:04.417Z,12.93
2017-10-28T13:21:13.267Z,12.78
2017-10-28T13:22:22.220Z,12.78
2017-10-28T13:23:31.066Z,12.83
2017-10-28T13:24:39.919Z,12.75
2017-10-28T13:25:49.120Z,12.82
2017-10-28T13:26:57.965Z,13
2017-10-28T13:28:07.016Z,12.83
2017-10-28T13:29:15.865Z,12.83
2017-10-28T13:30:24.715Z,12.72
2017-10-28T13:31:33.562Z,12.77
2017-10-28T13:32:42.413Z,13
2017-10-28T13:33:51.266Z,12.79
2017-10-28T13:35:00.113Z,13
2017-10-28T13:36:08.963Z,12.85
2017-10-28T13:37:17.814Z,12.79
2017-10-28T13:38:26.662Z,12.83
2017-10-28T13:39:35.976Z,12.87
2017-10-28T13:40:44.825Z,12.75
2017-10-28T13:41:53.674Z,12.67
2017-10-28T13:43:02.527Z,12.71
2017-10-28T13:44:11.719Z,12.7
2017-10-28T13:45:20.820Z,12.68
2017-10-28T13:46:29.669Z,12.72
2017-10-28T13:47:38.521Z,12.85
2017-10-28T13:48:47.368Z,12.82
2017-10-28T13:49:56.220Z,12.78
2017-10-28T13:51:05.219Z,12.65
2017-10-28T13:52:14.074Z,12.77
2017-10-28T13:53:22.916Z,12.77
2017-10-28T13:54:31.766Z,12.89
2017-10-28T13:55:40.616Z,12.65
2017-10-28T13:56:49.614Z,12.85
2017-10-28T13:57:58.459Z,12.83
2017-10-28T13:59:07.305Z,12.78
2017-10-28T14:00:16.153Z,12.82
2017-10-28T14:01:25.004Z,12.78
2017-10-28T14:02:33.853Z,12.72
2017-10-28T14:03:42.703Z,12.6
2017-10-28T14:04:51.556Z,12.89
2017-10-28T14:06:00.404Z,12.78
2017-10-28T14:07:09.252Z,12.74
2017-10-28T14:08:18.401Z,12.75
2017-10-28T14:09:27.250Z,12.7
2017-10-28T14:10:36.148Z,12.64
2017-10-28T14:11:44.997Z,12.7
2017-10-28T14:12:53.845Z,12.67
2017-10-28T14:14:02.847Z,12.7
2017-10-28T14:15:11.699Z,12.77
2017-10-28T14:16:20.550Z,12.77
2017-10-28T14:17:29.798Z,12.9
2017-10-28T14:18:38.647Z,12.77
2017-10-28T14:19:47.602Z,12.72
2017-10-28T14:20:56.447Z,12.67
2017-10-28T14:22:05.302Z,12.75
2017-10-28T14:23:14.149Z,12.77
2017-10-28T14:24:22.999Z,12.68
2017-10-28T14:25:32.001Z,12.85
2017-10-28T14:26:40.849Z,12.87
2017-10-28T14:27:49.757Z,12.85
2017-10-28T14:28:58.612Z,12.75
2017-10-28T14:30:07.465Z,12.68
2017-10-28T14:31:16.660Z,12.83
2017-10-28T14:32:25.509Z,12.67
2017-10-28T14:33:34.359Z,12.56
2017-10-28T14:34:45.813Z,12.67
2017-10-28T14:35:54.662Z,12.68
2017-10-28T14:37:03.510Z,12.68
2017-10-28T14:38:12.362Z,12.7
2017-10-28T14:39:21.208Z,12.67
2017-10-28T14:40:30.162Z,12.64
2017-10-28T14:41:39.010Z,12.65
2017-10-28T14:42:48.005Z,12.56
2017-10-28T14:43:57.198Z,12.59
2017-10-28T14:45:06.045Z,12.65
2017-10-28T14:46:14.894Z,12.85
2017-10-28T14:47:24.087Z,12.79
2017-10-28T14:48:33.234Z,12.7
2017-10-28T14:49:42.110Z,12.68
2017-10-28T14:50:50.974Z,12.83